Time;durP1;ratioP1;P1;durP2;ratioP2;P2;SDS_P1;SDS_P2;PMS_P1;PMS_P2;Temp;Humidity;BMP_temperature;BMP_pressure;BME280_temperature;BME280_humidity;BME280_pressure;Samples;Min_cycle;Max_cycle;Signal;HPM_P1;HPM_P2
2022/08/04 00:00:22;;;;;;;7.23;3.00;;;20.90;99.90;;;;;;5137270;27;20050;-75
2022/08/04 00:02:52;;;;;;;12.83;2.87;;;20.90;99.90;;;;;;5137449;27;20047;-74
2022/08/04 00:05:42;;;;;;;10.90;2.97;;;20.80;99.90;;;;;;5137029;27;20444;-74
2022/08/04 00:08:48;;;;;;;7.13;2.57;;;20.80;99.90;;;;;;5137176;27;20433;-74
2022/08/04 00:11:21;;;;;;;8.45;2.80;;;20.70;99.90;;;;;;5118722;27;20039;-75
2022/08/04 00:14:09;;;;;;;12.77;5.10;;;20.70;99.90;;;;;;5137547;27;20473;-74
2022/08/04 00:16:37;;;;;;;11.03;5.57;;;20.70;99.90;;;;;;5137390;27;20272;-74
2022/08/04 00:19:10;;;;;;;9.03;4.30;;;20.60;99.90;;;;;;5136745;27;20134;-74
2022/08/04 00:21:39;;;;;;;10.20;3.80;;;20.60;99.90;;;;;;5137473;27;20096;-74
2022/08/04 00:24:06;;;;;;;9.43;3.53;;;20.60;99.90;;;;;;5137145;27;20166;-74
2022/08/04 00:26:33;;;;;;;13.27;3.70;;;20.60;99.90;;;;;;5137010;27;20049;-74
2022/08/04 00:28:59;;;;;;;7.90;3.00;;;20.60;99.90;;;;;;5136919;27;20126;-74
2022/08/04 00:31:26;;;;;;;7.83;2.97;;;20.50;99.90;;;;;;5136705;27;20105;-74
2022/08/04 00:33:52;;;;;;;11.10;3.00;;;20.50;99.90;;;;;;5136880;27;20053;-74
2022/08/04 00:36:19;;;;;;;9.43;3.23;;;20.60;99.90;;;;;;5136563;27;20066;-74
2022/08/04 00:38:44;;;;;;;13.37;3.47;;;20.60;99.90;;;;;;5118843;27;20050;-74
2022/08/04 00:41:16;;;;;;;11.33;3.23;;;20.60;99.90;;;;;;5136889;27;20039;-75
2022/08/04 00:44:12;;;;;;;12.40;3.83;;;20.60;99.90;;;;;;5136704;27;20492;-74
2022/08/04 00:46:41;;;;;;;11.27;4.00;;;20.60;99.90;;;;;;5136660;27;20129;-74
2022/08/04 00:49:22;;;;;;;8.93;3.50;;;20.60;99.90;;;;;;5118413;27;20092;-74
2022/08/04 00:52:12;;;;;;;10.87;3.53;;;20.60;99.90;;;;;;5136863;27;20394;-74
2022/08/04 00:54:58;;;;;;;10.67;3.70;;;20.60;99.90;;;;;;5136438;27;20049;-74
2022/08/04 00:57:47;;;;;;;10.83;2.87;;;20.60;99.90;;;;;;5136230;27;20047;-74
2022/08/04 01:00:15;;;;;;;9.33;3.43;;;20.60;99.90;;;;;;5118121;27;20390;-74
2022/08/04 01:02:49;;;;;;;16.27;4.03;;;20.70;99.90;;;;;;5136460;27;20055;-74
2022/08/04 01:05:28;;;;;;;8.95;3.15;;;20.70;99.90;;;;;;5136067;27;20051;-74
2022/08/04 01:08:26;;;;;;;8.93;3.60;;;20.70;99.90;;;;;;5136611;27;20386;-74
2022/08/04 01:11:13;;;;;;;8.73;3.40;;;20.70;99.90;;;;;;5136230;27;20100;-74
2022/08/04 01:13:59;;;;;;;10.40;3.50;;;20.70;99.90;;;;;;5136186;27;20090;-74
2022/08/04 01:16:26;;;;;;;9.80;2.97;;;20.70;99.90;;;;;;5135973;27;20043;-74
2022/08/04 01:19:04;;;;;;;8.90;3.03;;;20.70;99.90;;;;;;5136021;27;20058;-74
2022/08/04 01:21:42;;;;;;;10.97;3.23;;;20.70;99.90;;;;;;5135725;27;20542;-74
2022/08/04 01:24:32;;;;;;;13.63;3.20;;;20.70;99.90;;;;;;5117968;27;20055;-74
2022/08/04 01:27:01;;;;;;;13.33;4.20;;;20.70;99.90;;;;;;5135904;27;20047;-74
2022/08/04 01:29:32;;;;;;;10.93;3.40;;;20.70;99.90;;;;;;5135561;27;20082;-74
2022/08/04 01:32:06;;;;;;;7.03;3.03;;;20.70;99.90;;;;;;5135988;27;20047;-74
2022/08/04 01:34:41;;;;;;;8.67;3.40;;;20.70;99.90;;;;;;5135533;27;20043;-74
2022/08/04 01:37:22;;;;;;;11.30;3.70;;;20.60;99.90;;;;;;5117478;27;20039;-74
2022/08/04 01:40:03;;;;;;;11.97;3.60;;;20.60;99.90;;;;;;5135931;27;20120;-74
2022/08/04 01:42:32;;;;;;;8.87;3.90;;;20.60;99.90;;;;;;5135293;27;20122;-74
2022/08/04 01:45:02;;;;;;;9.10;3.10;;;20.60;99.90;;;;;;5117309;27;20502;-73
2022/08/04 01:47:29;;;;;;;10.67;3.47;;;20.60;99.90;;;;;;5135156;27;20047;-74
2022/08/04 01:50:11;;;;;;;10.30;3.70;;;20.60;99.90;;;;;;5135240;27;20063;-74
2022/08/04 01:52:39;;;;;;;8.40;3.07;;;20.50;99.90;;;;;;5116994;27;20055;-74
2022/08/04 01:55:08;;;;;;;8.60;3.80;;;20.60;99.90;;;;;;5117033;27;20329;-73
2022/08/04 01:57:48;;;;;;;11.33;4.07;;;20.50;99.90;;;;;;5134679;27;20509;-74
2022/08/04 02:00:20;;;;;;;9.77;3.10;;;20.60;99.90;;;;;;5135355;27;20481;-74
2022/08/04 02:02:46;;;;;;;9.97;3.83;;;20.60;99.90;;;;;;5117134;27;20050;-74
2022/08/04 02:05:16;;;;;;;14.23;4.20;;;20.60;99.90;;;;;;5115911;27;20495;-74
2022/08/04 02:08:03;;;;;;;8.57;3.93;;;20.60;99.90;;;;;;5134722;27;20431;-74
2022/08/04 02:10:45;;;;;;;10.23;4.13;;;20.70;99.90;;;;;;5134789;27;20050;-74
2022/08/04 02:13:31;;;;;;;8.43;3.57;;;20.70;99.90;;;;;;5134940;27;20131;-74
2022/08/04 02:16:22;;;;;;;11.67;3.97;;;20.70;99.90;;;;;;5135207;27;20054;-74
2022/08/04 02:19:09;;;;;;;9.10;3.70;;;20.70;99.90;;;;;;5134849;27;20067;-74
2022/08/04 02:21:36;;;;;;;10.10;3.83;;;20.70;99.90;;;;;;5134594;27;20047;-74
2022/08/04 02:24:14;;;;;;;11.77;3.93;;;20.70;99.90;;;;;;5134725;27;20047;-74
2022/08/04 02:26:42;;;;;;;9.90;4.20;;;20.70;99.90;;;;;;5134410;27;20288;-74
2022/08/04 02:29:13;;;;;;;11.23;4.53;;;20.70;99.90;;;;;;5134577;27;20103;-74
2022/08/04 02:31:51;;;;;;;9.50;3.80;;;20.80;99.90;;;;;;5133937;27;20498;-74
2022/08/04 02:34:37;;;;;;;8.73;3.97;;;20.80;99.90;;;;;;5134660;27;20051;-74
2022/08/04 02:37:04;;;;;;;6.83;3.40;;;20.80;99.90;;;;;;5134787;27;20043;-74
2022/08/04 02:39:35;;;;;;;9.60;4.30;;;20.80;99.90;;;;;;5134182;27;20088;-74
2022/08/04 02:42:03;;;;;;;11.43;3.90;;;20.80;99.90;;;;;;5116348;27;20050;-73
2022/08/04 02:44:31;;;;;;;9.53;3.90;;;20.80;99.90;;;;;;5134105;27;20500;-74
2022/08/04 02:46:59;;;;;;;9.67;3.83;;;20.80;99.90;;;;;;5116048;27;20047;-73
2022/08/04 02:49:26;;;;;;;7.97;3.30;;;20.80;99.90;;;;;;5133942;27;20467;-74
2022/08/04 02:51:56;;;;;;;12.77;3.77;;;20.80;99.90;;;;;;5134258;27;20390;-74
2022/08/04 02:54:30;;;;;;;11.37;4.43;;;20.80;99.90;;;;;;5134237;27;20046;-74
2022/08/04 02:56:58;;;;;;;10.77;4.07;;;20.80;99.90;;;;;;5134274;27;20069;-73
2022/08/04 02:59:35;;;;;;;8.67;3.70;;;20.80;99.90;;;;;;5134358;27;20356;-78
2022/08/04 03:02:01;;;;;;;8.80;3.63;;;20.80;99.90;;;;;;5134156;27;20086;-74
2022/08/04 03:05:05;;;;;;;8.53;3.40;;;20.80;99.90;;;;;;5115470;27;20089;-74
2022/08/04 03:08:02;;;;;;;10.47;3.83;;;20.80;99.90;;;;;;5077129;27;20090;-74
2022/08/04 03:10:34;;;;;;;8.43;4.00;;;20.90;99.90;;;;;;5115583;28;20043;-74
2022/08/04 03:13:21;;;;;;;10.00;4.03;;;20.80;99.90;;;;;;5116128;27;20051;-74
2022/08/04 03:15:54;;;;;;;10.30;3.60;;;20.80;99.90;;;;;;5133382;27;20043;-74
2022/08/04 03:18:28;;;;;;;8.37;3.53;;;20.80;99.90;;;;;;5133993;27;20116;-74
2022/08/04 03:21:09;;;;;;;8.30;3.55;;;20.80;99.90;;;;;;5133937;27;20072;-74
2022/08/04 03:23:53;;;;;;;10.13;3.90;;;20.80;99.90;;;;;;5133763;28;20043;-74
2022/08/04 03:26:39;;;;;;;10.40;3.40;;;20.70;99.90;;;;;;5133933;28;20047;-74
2022/08/04 03:29:28;;;;;;;12.47;3.70;;;20.70;99.90;;;;;;5114971;28;20307;-74
2022/08/04 03:32:18;;;;;;;7.37;3.40;;;20.60;99.90;;;;;;5134151;28;20108;-74
2022/08/04 03:34:56;;;;;;;10.43;4.40;;;20.60;99.90;;;;;;5133417;28;20050;-74
2022/08/04 03:37:24;;;;;;;8.03;3.37;;;20.50;99.90;;;;;;5133778;28;20051;-74
2022/08/04 03:40:20;;;;;;;9.77;3.47;;;20.50;99.90;;;;;;5133080;28;20479;-74
2022/08/04 03:43:18;;;;;;;9.13;3.50;;;20.50;99.90;;;;;;5133526;28;20479;-74
2022/08/04 03:46:12;;;;;;;7.43;3.63;;;20.40;99.90;;;;;;5133463;28;20134;-74
2022/08/04 03:48:50;;;;;;;9.77;4.47;;;20.50;99.90;;;;;;5133400;28;20043;-74
2022/08/04 03:55:06;;;;;;;10.17;3.90;;;20.40;99.90;;;;;;5133318;28;20051;-74
2022/08/04 03:57:54;;;;;;;8.20;3.90;;;20.40;99.90;;;;;;5133306;28;20475;-75
2022/08/04 04:00:25;;;;;;;9.67;4.07;;;20.30;99.90;;;;;;5133589;28;20123;-73
2022/08/04 04:02:59;;;;;;;9.53;3.60;;;20.30;99.90;;;;;;5133290;28;20039;-74
2022/08/04 04:05:28;;;;;;;9.63;3.88;;;20.40;99.90;;;;;;5133459;28;20099;-74
2022/08/04 04:08:18;;;;;;;10.60;4.97;;;20.40;99.90;;;;;;5114981;28;20491;-74
2022/08/04 04:10:50;;;;;;;6.63;3.23;;;20.40;99.90;;;;;;5133108;28;20044;-74
2022/08/04 04:13:25;;;;;;;11.90;4.10;;;20.30;99.90;;;;;;5115464;28;20182;-74
2022/08/04 04:16:12;;;;;;;9.47;3.67;;;20.30;99.90;;;;;;5133122;28;20051;-74
2022/08/04 04:18:51;;;;;;;8.37;4.00;;;20.30;99.90;;;;;;5133089;28;20055;-74
2022/08/04 04:21:47;;;;;;;8.63;3.60;;;20.30;99.90;;;;;;5133381;28;20058;-74
2022/08/04 04:24:28;;;;;;;9.47;3.67;;;20.20;99.90;;;;;;5133406;28;20057;-74
2022/08/04 04:27:12;;;;;;;9.13;3.97;;;20.20;99.90;;;;;;5114984;27;20904;-74
2022/08/04 04:30:24;;;;;;;8.18;3.70;;;20.20;99.90;;;;;;5136613;27;20380;-74
2022/08/04 04:33:14;;;;;;;7.50;3.00;;;20.30;99.90;;;;;;5016922;28;20050;-74
2022/08/04 04:36:02;;;;;;;8.57;3.67;;;20.20;99.90;;;;;;5132308;27;20054;-74
2022/08/04 04:38:51;;;;;;;9.43;3.80;;;20.30;99.90;;;;;;5136946;27;20487;-74
2022/08/04 04:41:28;;;;;;;8.60;3.63;;;20.30;99.90;;;;;;5118837;27;20085;-74
2022/08/04 04:43:54;;;;;;;9.33;4.13;;;20.30;99.90;;;;;;5118489;27;20440;-74
2022/08/04 04:46:35;;;;;;;8.20;3.40;;;20.30;99.90;;;;;;5136894;27;20055;-74
2022/08/04 04:49:24;;;;;;;13.17;4.37;;;20.30;99.90;;;;;;5136289;27;20111;-74
2022/08/04 04:52:07;;;;;;;8.83;4.17;;;20.40;99.90;;;;;;5118284;27;20043;-74
2022/08/04 04:54:45;;;;;;;9.27;4.33;;;20.40;99.90;;;;;;5136820;27;20440;-74
2022/08/04 04:57:16;;;;;;;9.53;3.87;;;20.40;99.90;;;;;;5136582;27;20097;-74
2022/08/04 04:59:54;;;;;;;10.53;4.03;;;20.40;99.90;;;;;;5136263;27;20043;-75
2022/08/04 05:02:41;;;;;;;11.93;3.70;;;20.40;99.90;;;;;;5118389;27;20035;-74
2022/08/04 05:05:17;;;;;;;8.53;3.87;;;20.50;99.90;;;;;;5136395;27;20047;-74
2022/08/04 05:07:51;;;;;;;9.57;3.73;;;20.60;99.90;;;;;;5118001;27;20130;-74
2022/08/04 05:11:03;;;;;;;10.27;4.60;;;20.70;99.90;;;;;;5136361;27;20076;-74
2022/08/04 05:13:53;;;;;;;9.23;4.30;;;20.80;99.90;;;;;;5040871;27;20059;-74
2022/08/04 05:16:33;;;;;;;12.20;4.63;;;20.80;99.90;;;;;;5136362;27;20050;-74
2022/08/04 05:19:07;;;;;;;10.77;4.53;;;20.90;99.90;;;;;;5135536;27;20503;-74
2022/08/04 05:21:45;;;;;;;8.90;4.30;;;21.00;99.90;;;;;;5117823;27;20056;-74
2022/08/04 05:24:14;;;;;;;13.30;5.13;;;21.10;99.90;;;;;;5136304;27;20047;-74
2022/08/04 05:26:45;;;;;;;8.53;4.93;;;21.20;99.90;;;;;;5136140;27;20050;-74
2022/08/04 05:29:21;;;;;;;11.27;4.60;;;21.30;99.90;;;;;;5136123;27;20432;-74
2022/08/04 05:31:52;;;;;;;13.17;5.47;;;21.40;99.90;;;;;;5135566;27;20043;-74
2022/08/04 05:34:27;;;;;;;10.50;5.33;;;21.40;99.90;;;;;;5136163;27;20108;-74
2022/08/04 05:37:04;;;;;;;10.27;5.80;;;21.50;99.90;;;;;;5135465;27;20047;-74
2022/08/04 05:39:36;;;;;;;11.60;5.23;;;21.50;99.90;;;;;;5135517;27;20042;-74
2022/08/04 05:42:03;;;;;;;10.10;5.67;;;21.70;99.90;;;;;;5135098;27;20495;-74
2022/08/04 05:44:31;;;;;;;8.37;4.97;;;21.90;99.90;;;;;;5135583;27;20086;-74
2022/08/04 05:46:58;;;;;;;11.73;5.13;;;22.10;99.90;;;;;;5135736;27;20076;-74
2022/08/04 05:49:26;;;;;;;10.50;5.10;;;22.30;99.90;;;;;;5135712;27;20390;-74
2022/08/04 05:51:54;;;;;;;12.60;4.57;;;22.60;99.90;;;;;;5117077;27;20394;-74
2022/08/04 05:54:21;;;;;;;9.50;4.40;;;22.80;99.90;;;;;;5135693;27;20039;-74
2022/08/04 05:56:49;;;;;;;13.47;4.83;;;23.30;99.90;;;;;;5135171;27;20456;-75
2022/08/04 05:59:18;;;;;;;11.50;4.47;;;23.90;99.90;;;;;;5135220;27;20069;-74
2022/08/04 06:01:45;;;;;;;11.23;4.97;;;24.70;99.90;;;;;;5135215;27;20051;-74
2022/08/04 06:04:12;;;;;;;8.80;4.40;;;25.20;99.90;;;;;;5135191;27;20487;-74
2022/08/04 06:06:40;;;;;;;13.47;4.70;;;25.50;99.90;;;;;;5135285;27;20088;-74
2022/08/04 06:09:06;;;;;;;12.77;5.20;;;25.70;99.90;;;;;;5099593;27;20085;-74
2022/08/04 06:11:34;;;;;;;9.57;5.87;;;26.30;99.90;;;;;;5135063;27;20074;-74
2022/08/04 06:14:03;;;;;;;13.10;6.23;;;26.50;99.90;;;;;;5134420;27;20482;-75
2022/08/04 06:16:42;;;;;;;10.67;5.50;;;26.40;99.90;;;;;;5134866;27;20047;-75
2022/08/04 06:19:10;;;;;;;11.07;5.90;;;26.10;99.90;;;;;;5134319;27;20055;-75
2022/08/04 06:21:38;;;;;;;9.20;6.10;;;25.80;99.90;;;;;;5135006;27;20058;-74
2022/08/04 06:24:09;;;;;;;11.23;6.50;;;25.50;99.90;;;;;;5134525;27;20051;-75
2022/08/04 06:26:36;;;;;;;12.13;6.13;;;25.40;99.90;;;;;;5134819;27;20123;-75
2022/08/04 06:29:03;;;;;;;12.67;5.83;;;25.40;99.90;;;;;;5134385;27;20404;-75
2022/08/04 06:31:56;;;;;;;10.50;6.10;;;25.40;99.90;;;;;;5134621;27;20054;-75
2022/08/04 06:34:24;;;;;;;10.37;5.80;;;25.60;99.90;;;;;;5134730;27;20047;-75
2022/08/04 06:36:51;;;;;;;13.37;6.33;;;25.70;99.90;;;;;;5134322;27;20050;-75
2022/08/04 06:39:18;;;;;;;12.77;6.37;;;25.60;99.90;;;;;;5134670;27;20050;-74
2022/08/04 06:41:44;;;;;;;11.70;6.30;;;25.50;99.90;;;;;;5134547;27;20059;-74
2022/08/04 06:44:11;;;;;;;12.60;5.20;;;25.60;99.90;;;;;;5134270;27;20039;-74
2022/08/04 06:46:40;;;;;;;13.67;6.67;;;25.50;99.90;;;;;;5116528;27;20050;-74
2022/08/04 06:49:06;;;;;;;10.17;5.83;;;25.50;99.90;;;;;;5134009;27;20079;-75
2022/08/04 06:51:37;;;;;;;9.13;6.00;;;25.40;99.90;;;;;;5133666;27;20537;-74
2022/08/04 06:54:04;;;;;;;11.57;6.43;;;25.30;99.90;;;;;;5133983;27;20058;-74
2022/08/04 06:56:32;;;;;;;11.03;6.43;;;25.30;99.90;;;;;;5115850;27;20475;-76
2022/08/04 06:59:00;;;;;;;15.40;6.40;;;25.30;99.90;;;;;;5133910;27;20047;-75
2022/08/04 07:01:28;;;;;;;10.97;6.07;;;25.50;99.90;;;;;;5134184;27;20448;-76
2022/08/04 07:03:54;;;;;;;10.00;5.90;;;25.80;99.90;;;;;;5133957;27;20376;-76
2022/08/04 07:06:24;;;;;;;13.33;6.23;;;26.20;99.90;;;;;;5134116;27;20460;-75
2022/08/04 07:08:51;;;;;;;11.53;5.67;;;26.50;99.90;;;;;;5133998;27;20047;-75
2022/08/04 07:11:19;;;;;;;11.50;5.93;;;26.70;99.90;;;;;;5133764;27;20490;-77
2022/08/04 07:13:45;;;;;;;16.07;6.10;;;26.70;99.90;;;;;;5115894;27;20046;-76
2022/08/04 07:16:14;;;;;;;11.63;6.10;;;26.70;99.90;;;;;;5133672;27;20103;-76
2022/08/04 07:18:40;;;;;;;11.30;6.40;;;26.80;99.90;;;;;;5115223;28;20074;-76
2022/08/04 07:21:06;;;;;;;13.03;6.67;;;27.00;99.90;;;;;;5133738;27;20475;-76
2022/08/04 07:23:32;;;;;;;14.83;6.10;;;27.20;99.90;;;;;;5116041;28;20051;-76
2022/08/04 07:25:58;;;;;;;11.77;6.70;;;27.60;99.90;;;;;;5133550;28;20054;-77
2022/08/04 07:28:28;;;;;;;11.73;6.17;;;27.90;99.90;;;;;;5134022;28;20039;-87
2022/08/04 07:30:55;;;;;;;14.10;6.40;;;27.90;99.90;;;;;;5134234;28;20043;-91
2022/08/04 07:33:22;;;;;;;9.57;5.40;;;28.00;99.60;;;;;;5134292;28;20463;-81
2022/08/04 07:35:51;;;;;;;16.37;7.30;;;28.00;99.10;;;;;;5133878;28;20051;-81
2022/08/04 07:38:17;;;;;;;10.70;5.75;;;27.90;99.90;;;;;;5115401;28;20099;-81
2022/08/04 07:40:44;;;;;;;12.60;6.47;;;27.70;99.40;;;;;;5133848;28;20047;-81
2022/08/04 07:43:10;;;;;;;16.20;6.53;;;27.70;99.90;;;;;;5115404;28;20051;-81
2022/08/04 07:45:36;;;;;;;9.52;5.70;;;27.60;99.90;;;;;;5133589;28;20489;-86
2022/08/04 07:48:04;;;;;;;10.73;5.43;;;27.60;99.90;;;;;;5133432;28;20043;-77
2022/08/04 07:50:31;;;;;;;15.77;6.30;;;27.60;99.90;;;;;;5115609;28;20068;-85
2022/08/04 07:52:57;;;;;;;12.77;5.33;;;27.40;99.90;;;;;;5133867;28;20395;-76
2022/08/04 07:55:23;;;;;;;11.40;4.90;;;27.60;99.90;;;;;;5133494;28;20040;-77
2022/08/04 07:57:49;;;;;;;10.07;5.35;;;27.80;99.90;;;;;;5133736;28;20134;-77
2022/08/04 08:00:14;;;;;;;13.27;5.47;;;27.90;99.90;;;;;;5133262;28;20134;-77
2022/08/04 08:02:42;;;;;;;11.45;5.30;;;27.80;99.90;;;;;;5134175;27;20348;-76
2022/08/04 08:05:15;;;;;;;15.68;4.32;;;28.00;99.90;;;;;;5136918;27;20444;-77
2022/08/04 08:07:44;;;;;;;11.70;4.88;;;28.40;99.40;;;;;;5137463;27;20047;-76
2022/08/04 08:10:13;;;;;;;14.00;4.90;;;;;;;;;;5137107;27;20125;-77
2022/08/04 08:12:40;;;;;;;13.75;5.32;;;29.00;96.30;;;;;;5137393;27;20043;-75
2022/08/04 08:15:08;;;;;;;12.82;5.40;;;29.00;96.00;;;;;;5137168;27;20061;-77
2022/08/04 08:17:35;;;;;;;10.07;4.78;;;28.90;95.50;;;;;;5119156;27;20440;-77
2022/08/04 08:20:01;;;;;;;16.08;4.60;;;;;;;;;;5137145;27;20047;-80
2022/08/04 08:22:28;;;;;;;10.20;4.40;;;29.20;99.90;;;;;;5119115;27;20374;-78
2022/08/04 08:24:54;;;;;;;7.55;3.33;;;29.40;93.10;;;;;;5119103;27;20567;-76
2022/08/04 08:27:20;;;;;;;12.40;4.13;;;29.70;92.20;;;;;;5118646;27;20047;-77
2022/08/04 08:29:46;;;;;;;10.65;3.65;;;29.80;91.50;;;;;;5136961;27;20092;-76
2022/08/04 08:32:12;;;;;;;10.43;3.95;;;29.60;89.70;;;;;;5136815;27;20501;-77
2022/08/04 08:34:39;;;;;;;9.45;4.28;;;29.30;90.40;;;;;;5137006;27;20051;-77
2022/08/04 08:37:34;;;;;;;9.30;3.85;;;29.10;90.80;;;;;;5136697;27;20051;-79
2022/08/04 08:40:24;;;;;;;13.10;4.45;;;29.00;91.20;;;;;;5136836;27;20129;-78
2022/08/04 08:43:26;;;;;;;10.32;3.85;;;28.90;92.60;;;;;;5136875;27;20051;-77
2022/08/04 08:45:54;;;;;;;8.82;3.63;;;28.80;93.10;;;;;;5136892;27;20047;-79
2022/08/04 08:48:43;;;;;;;7.88;3.05;;;28.70;91.40;;;;;;5118048;27;20405;-80
2022/08/04 08:51:35;;;;;;;12.18;3.22;;;28.60;91.10;;;;;;5136437;27;20116;-81
2022/08/04 08:54:38;;;;;;;9.85;3.00;;;28.50;90.60;;;;;;5122746;27;20499;-77
2022/08/04 08:57:16;;;;;;;8.40;2.88;;;28.50;91.20;;;;;;5136610;27;20047;-78
2022/08/04 08:59:56;;;;;;;9.85;3.25;;;28.50;91.70;;;;;;5136831;27;20047;-78
2022/08/04 09:02:22;;;;;;;7.80;2.83;;;28.60;92.50;;;;;;5136460;27;20043;-83
2022/08/04 09:05:06;;;;;;;10.63;3.38;;;28.60;92.40;;;;;;5118169;27;20058;-79
2022/08/04 09:07:57;;;;;;;11.60;2.92;;;28.60;92.30;;;;;;5118702;27;20051;-79
2022/08/04 09:10:25;;;;;;;10.82;2.85;;;28.50;92.80;;;;;;5136064;27;20083;-81
2022/08/04 09:12:54;;;;;;;11.77;3.38;;;28.50;93.80;;;;;;5117948;27;20129;-85
2022/08/04 09:15:45;;;;;;;8.38;2.83;;;28.50;94.00;;;;;;5135497;27;20134;-81
2022/08/04 09:18:35;;;;;;;10.27;3.45;;;28.50;94.90;;;;;;5135808;27;20058;-83
2022/08/04 09:21:56;;;;;;;8.20;2.92;;;28.50;94.60;;;;;;5136388;27;20474;-83
2022/08/04 09:24:37;;;;;;;9.45;2.95;;;28.30;95.60;;;;;;5095558;27;20176;-83
2022/08/04 09:27:08;;;;;;;6.90;2.70;;;28.30;96.40;;;;;;5136034;27;20427;-83
2022/08/04 09:29:55;;;;;;;8.63;2.83;;;28.30;96.30;;;;;;5136215;27;20117;-83
2022/08/04 09:32:43;;;;;;;7.55;2.38;;;28.30;96.40;;;;;;5135625;27;20058;-77
2022/08/04 09:35:18;;;;;;;7.57;2.58;;;;;;;;;;5135731;27;20055;-79
2022/08/04 09:38:15;;;;;;;6.80;2.40;;;28.20;97.30;;;;;;5135960;27;20086;-82
2022/08/04 09:41:04;;;;;;;8.18;2.65;;;28.10;97.50;;;;;;5135968;27;20043;-79
2022/08/04 09:43:54;;;;;;;8.00;2.65;;;28.00;98.10;;;;;;5117028;27;20161;-76
2022/08/04 09:46:29;;;;;;;11.63;2.55;;;;;;;;;;5135368;27;20406;-75
2022/08/04 09:49:04;;;;;;;9.68;1.98;;;;;;;;;;5135416;27;20047;-75
2022/08/04 09:51:43;;;;;;;5.80;2.08;;;;;;;;;;5135177;27;20399;-71
2022/08/04 09:54:14;;;;;;;4.97;2.42;;;;;;;;;;5135499;27;20054;-70
2022/08/04 09:56:59;;;;;;;6.78;1.83;;;27.90;99.90;;;;;;5135448;27;20058;-70
2022/08/04 09:59:47;;;;;;;11.15;1.52;;;27.90;99.90;;;;;;5135257;27;20046;-71
2022/08/04 10:02:17;;;;;;;5.90;1.70;;;27.90;99.90;;;;;;5135259;27;20050;-73
2022/08/04 10:04:45;;;;;;;6.38;1.70;;;27.90;99.90;;;;;;5135478;27;20108;-69
2022/08/04 10:07:29;;;;;;;9.27;1.77;;;28.00;99.90;;;;;;5135556;27;20060;-69
2022/08/04 10:10:22;;;;;;;15.07;1.98;;;28.00;99.90;;;;;;5135158;27;20039;-69
2022/08/04 10:13:16;;;;;;;6.32;1.45;;;28.00;99.90;;;;;;5086697;27;20051;-69
2022/08/04 10:16:09;;;;;;;6.43;1.48;;;28.10;99.90;;;;;;5135466;27;20177;-70
2022/08/04 10:18:44;;;;;;;5.18;1.50;;;28.10;99.90;;;;;;5134518;27;20074;-74
2022/08/04 10:21:17;;;;;;;5.35;1.35;;;28.20;99.90;;;;;;5134998;27;20099;-72
2022/08/04 10:24:21;;;;;;;23.95;2.20;;;28.20;99.90;;;;;;5134736;27;20552;-72
2022/08/04 10:27:14;;;;;;;6.30;1.70;;;28.20;99.90;;;;;;5133460;27;20476;-71
2022/08/04 10:29:45;;;;;;;3.33;1.58;;;28.10;99.90;;;;;;5134377;27;20043;-70
2022/08/04 10:32:23;;;;;;;8.45;2.17;;;28.10;99.90;;;;;;5134669;27;20051;-70
2022/08/04 10:35:09;;;;;;;5.38;1.85;;;28.20;99.90;;;;;;5134901;27;20111;-70
2022/08/04 10:37:42;;;;;;;5.22;1.58;;;28.10;99.60;;;;;;5134283;27;20054;-70
2022/08/04 10:43:31;;;;;;;6.07;1.83;;;28.10;99.60;;;;;;5134580;27;20047;-69
2022/08/04 10:46:02;;;;;;;5.05;1.50;;;28.00;99.50;;;;;;5120310;27;20462;-69
2022/08/04 10:48:51;;;;;;;5.47;2.00;;;28.00;99.60;;;;;;5134139;27;20035;-69
2022/08/04 10:51:46;;;;;;;5.68;1.70;;;27.90;99.40;;;;;;5134294;27;20078;-69
2022/08/04 10:54:49;;;;;;;6.43;1.70;;;27.90;99.90;;;;;;5134428;27;20096;-69
2022/08/04 10:57:42;;;;;;;6.25;2.03;;;27.90;99.90;;;;;;5134227;27;20046;-69
2022/08/04 11:00:18;;;;;;;3.90;1.88;;;28.00;99.90;;;;;;5134177;27;20046;-69
2022/08/04 11:03:02;;;;;;;5.80;1.95;;;28.10;99.70;;;;;;5116384;27;20514;-73
2022/08/04 11:05:48;;;;;;;4.90;1.65;;;28.00;99.60;;;;;;5134034;27;20051;-69
2022/08/04 11:08:27;;;;;;;5.22;1.58;;;27.90;99.90;;;;;;5134077;27;20078;-71
2022/08/04 11:11:18;;;;;;;3.67;1.50;;;28.00;99.90;;;;;;5134336;27;20103;-71
2022/08/04 11:14:21;;;;;;;3.88;1.63;;;28.00;99.90;;;;;;5115526;28;20047;-69
2022/08/04 11:17:03;;;;;;;3.78;1.48;;;28.00;99.90;;;;;;5094379;27;20113;-72
2022/08/04 11:19:34;;;;;;;4.05;1.50;;;27.90;99.20;;;;;;5133804;27;20495;-69
2022/08/04 11:22:14;;;;;;;3.08;1.40;;;28.00;99.10;;;;;;5133879;27;20130;-69
2022/08/04 11:25:16;;;;;;;4.88;1.50;;;27.90;98.60;;;;;;5133733;27;20388;-69
2022/08/04 11:28:09;;;;;;;2.83;1.60;;;27.90;98.20;;;;;;5077775;28;20058;-69
2022/08/04 11:30:44;;;;;;;5.32;1.45;;;27.90;97.80;;;;;;5133568;28;20499;-69
2022/08/04 11:33:25;;;;;;;3.90;1.80;;;27.90;97.60;;;;;;5133865;28;20059;-69
2022/08/04 11:36:18;;;;;;;5.80;1.85;;;27.90;97.20;;;;;;5133748;28;20047;-69
2022/08/04 11:39:25;;;;;;;4.22;1.80;;;27.90;97.20;;;;;;5137845;27;20043;-70
2022/08/04 11:42:19;;;;;;;4.18;1.50;;;28.00;96.80;;;;;;5109692;27;20051;-69
2022/08/04 11:45:07;;;;;;;4.37;1.70;;;28.00;96.80;;;;;;5137737;27;20104;-69
2022/08/04 11:48:04;;;;;;;4.18;1.75;;;27.90;96.40;;;;;;5137576;27;20368;-69
2022/08/04 11:50:40;;;;;;;4.57;1.45;;;27.90;96.50;;;;;;5132287;27;20095;-69
2022/08/04 11:53:09;;;;;;;3.70;1.50;;;27.80;96.80;;;;;;5137829;27;20047;-69
2022/08/04 11:55:37;;;;;;;6.90;2.25;;;27.70;72.70;;;;;;5153832;27;20035;-69
2022/08/04 11:58:04;;;;;;;6.20;1.55;;;27.70;73.40;;;;;;5137731;27;20051;-69
2022/08/04 12:00:31;;;;;;;5.78;1.63;;;27.70;74.20;;;;;;5119115;27;20043;-70
2022/08/04 12:03:24;;;;;;;5.00;1.42;;;27.70;74.00;;;;;;5137736;27;20047;-69
2022/08/04 12:05:53;;;;;;;5.05;1.50;;;27.80;73.80;;;;;;5150292;27;20130;-69
2022/08/04 12:08:32;;;;;;;5.20;1.55;;;27.80;73.60;;;;;;5158365;27;20409;-69
2022/08/04 12:11:18;;;;;;;7.30;1.90;;;27.70;74.10;;;;;;5158281;27;20043;-69
2022/08/04 12:14:08;;;;;;;3.13;1.40;;;27.80;75.30;;;;;;5158036;27;20046;-69
2022/08/04 12:16:59;;;;;;;3.17;1.50;;;;;;;;;;5157411;27;20046;-69
2022/08/04 12:19:27;;;;;;;7.43;1.48;;;28.00;95.00;;;;;;5157790;27;20062;-69
2022/08/04 12:21:58;;;;;;;3.20;1.35;;;27.60;72.40;;;;;;5157983;27;20141;-69
2022/08/04 12:24:36;;;;;;;9.93;1.70;;;27.60;73.50;;;;;;5158084;27;20047;-69
2022/08/04 12:27:16;;;;;;;7.82;1.73;;;27.60;74.00;;;;;;5157807;27;20046;-69
2022/08/04 12:29:44;;;;;;;4.97;1.75;;;27.70;74.60;;;;;;5157511;27;20049;-69
2022/08/04 12:32:28;;;;;;;4.85;1.80;;;27.70;73.00;;;;;;5157797;27;20074;-69
2022/08/04 12:35:19;;;;;;;6.55;1.77;;;27.70;73.00;;;;;;5139386;27;20099;-69
2022/08/04 12:38:10;;;;;;;4.38;1.35;;;27.80;72.20;;;;;;5107621;27;20520;-69
2022/08/04 12:40:45;;;;;;;4.72;1.70;;;27.80;72.40;;;;;;5157365;27;20042;-69
2022/08/04 12:43:19;;;;;;;2.85;1.23;;;27.70;70.80;;;;;;5157415;27;20099;-69
2022/08/04 12:45:53;;;;;;;5.70;1.58;;;27.70;69.90;;;;;;5157305;27;20126;-69
2022/08/04 12:48:22;;;;;;;4.23;1.57;;;27.60;67.70;;;;;;5156349;27;20050;-69
2022/08/04 12:50:54;;;;;;;3.77;1.30;;;27.60;66.40;;;;;;5157101;27;20046;-69
2022/08/04 12:53:41;;;;;;;3.23;1.20;;;27.60;65.80;;;;;;5157282;27;20054;-70
2022/08/04 12:56:13;;;;;;;4.13;1.30;;;27.60;65.90;;;;;;5136450;27;20125;-69
2022/08/04 12:58:43;;;;;;;5.30;1.77;;;27.60;65.60;;;;;;5136191;27;20047;-69
2022/08/04 13:01:22;;;;;;;4.43;1.60;;;27.40;65.30;;;;;;5136470;27;20043;-69
2022/08/04 13:03:51;;;;;;;4.90;1.40;;;27.40;65.90;;;;;;5136270;27;20043;-69
2022/08/04 13:06:27;;;;;;;3.80;1.63;;;27.30;66.30;;;;;;5138150;27;20126;-69
2022/08/04 13:08:54;;;;;;;4.93;1.67;;;27.20;65.00;;;;;;5156852;27;21013;-70
2022/08/04 13:11:22;;;;;;;3.23;1.50;;;27.00;65.90;;;;;;5157214;27;20436;-69
2022/08/04 13:13:54;;;;;;;4.60;1.60;;;27.00;67.30;;;;;;5156721;27;20130;-70
2022/08/04 13:16:29;;;;;;;3.70;1.57;;;27.00;67.40;;;;;;5156375;27;20562;-70
2022/08/04 13:18:56;;;;;;;4.03;1.60;;;27.00;67.60;;;;;;5156584;27;20047;-70
2022/08/04 13:21:24;;;;;;;3.60;1.57;;;27.00;67.50;;;;;;5156854;27;20050;-69
2022/08/04 13:23:52;;;;;;;2.97;1.20;;;27.00;67.50;;;;;;5156518;27;20058;-70
2022/08/04 13:26:20;;;;;;;7.83;1.60;;;26.90;66.70;;;;;;5156499;27;20077;-70
2022/08/04 13:28:52;;;;;;;4.57;1.60;;;26.90;67.20;;;;;;5156353;27;20039;-70
2022/08/04 13:31:22;;;;;;;4.03;1.70;;;27.00;67.80;;;;;;5156561;27;20050;-70
2022/08/04 13:33:53;;;;;;;5.07;1.50;;;26.90;68.30;;;;;;5156288;27;20039;-70
2022/08/04 13:36:24;;;;;;;4.40;1.73;;;27.00;68.90;;;;;;5156466;27;20065;-70
2022/08/04 13:39:12;;;;;;;4.23;1.60;;;27.00;67.60;;;;;;5137907;27;20134;-70
2022/08/04 13:41:42;;;;;;;5.83;1.33;;;27.00;67.80;;;;;;5156239;27;20049;-70